createdAt,value
2017-10-30T00:02:04.956Z,7.50
2017-10-30T00:04:32.818Z,7.60
2017-10-30T00:07:00.342Z,7.60
2017-10-30T00:09:27.883Z,7.70
2017-10-30T00:11:55.455Z,7.80
2017-10-30T00:14:23.692Z,7.80
2017-10-30T00:16:51.494Z,7.90
2017-10-30T00:19:19.022Z,7.90
2017-10-30T00:21:46.569Z,7.90
2017-10-30T00:24:14.375Z,7.90
2017-10-30T00:39:36.934Z,7.90
2017-10-30T00:42:05.252Z,7.70
2017-10-30T00:44:32.773Z,7.60
2017-10-30T00:47:00.315Z,7.70
2017-10-30T00:49:28.923Z,7.80
2017-10-30T00:51:56.452Z,7.80
2017-10-30T00:54:24.727Z,7.80
2017-10-30T00:56:52.262Z,7.90
2017-10-30T00:59:19.764Z,8.00
2017-10-30T01:01:48.044Z,8.00
2017-10-30T01:04:16.630Z,8.10
2017-10-30T01:06:44.131Z,8.00
2017-10-30T01:09:11.676Z,8.10
2017-10-30T01:11:39.196Z,8.10
2017-10-30T01:14:06.705Z,8.20
2017-10-30T01:16:34.225Z,8.30
2017-10-30T01:19:02.057Z,8.20
2017-10-30T01:21:29.562Z,8.20
2017-10-30T01:23:57.093Z,8.10
2017-10-30T01:26:25.373Z,8.10
2017-10-30T01:28:53.667Z,8.00
2017-10-30T01:31:21.504Z,8.00
2017-10-30T01:33:49.399Z,8.10
2017-10-30T01:45:56.979Z,8.00
2017-10-30T01:48:24.512Z,7.80
2017-10-30T01:50:52.851Z,7.50
2017-10-30T01:53:20.347Z,7.40
2017-10-30T01:55:47.840Z,7.40
2017-10-30T01:58:15.448Z,7.50
2017-10-30T02:00:43.815Z,7.60
2017-10-30T02:03:12.608Z,7.60
2017-10-30T02:05:40.186Z,7.60
2017-10-30T02:08:07.703Z,7.70
2017-10-30T02:10:35.214Z,7.80
2017-10-30T02:13:02.756Z,7.80
2017-10-30T02:15:31.073Z,8.00
2017-10-30T02:17:59.496Z,8.00
2017-10-30T02:20:27.054Z,8.00
2017-10-30T02:22:54.587Z,8.00
2017-10-30T02:25:22.121Z,8.00
2017-10-30T02:27:49.662Z,8.00
2017-10-30T02:30:17.375Z,8.00
2017-10-30T02:32:44.873Z,8.10
2017-10-30T02:35:13.181Z,8.10
2017-10-30T02:37:40.730Z,8.00
2017-10-30T02:40:08.995Z,8.10
2017-10-30T02:42:37.311Z,8.10
2017-10-30T02:45:04.947Z,8.20
2017-10-30T02:47:32.502Z,8.20
2017-10-30T02:50:00.018Z,8.10
2017-10-30T02:52:27.595Z,8.20
2017-10-30T02:54:55.092Z,8.20
2017-10-30T02:57:22.634Z,8.10
2017-10-30T02:59:50.962Z,8.20
2017-10-30T03:02:18.485Z,8.20
2017-10-30T03:04:46.009Z,8.10
2017-10-30T03:07:13.563Z,8.00
2017-10-30T03:09:41.089Z,8.00
2017-10-30T03:12:08.876Z,8.00
2017-10-30T03:14:36.361Z,8.00
2017-10-30T03:17:04.702Z,8.10
2017-10-30T03:19:32.643Z,8.10
2017-10-30T03:22:00.198Z,8.10
2017-10-30T03:24:28.438Z,8.10
2017-10-30T03:26:55.960Z,8.10
2017-10-30T03:29:23.452Z,8.10
2017-10-30T03:31:51.900Z,8.00
2017-10-30T03:34:19.419Z,8.00
2017-10-30T03:36:46.953Z,7.90
2017-10-30T03:39:15.248Z,8.00
2017-10-30T03:41:42.724Z,8.00
2017-10-30T03:44:10.795Z,8.10
2017-10-30T03:46:38.949Z,8.10
2017-10-30T03:49:06.502Z,8.00
2017-10-30T03:51:34.020Z,8.00
2017-10-30T03:54:01.515Z,8.10
2017-10-30T03:56:29.842Z,8.10
2017-10-30T03:58:57.332Z,8.00
2017-10-30T04:01:24.846Z,8.00
2017-10-30T04:03:52.375Z,8.10
2017-10-30T04:06:20.639Z,7.90
2017-10-30T04:08:48.938Z,7.90
2017-10-30T04:11:16.442Z,7.90
2017-10-30T04:13:43.964Z,7.90
2017-10-30T04:16:11.472Z,7.80
2017-10-30T04:18:38.971Z,7.80
2017-10-30T04:21:06.491Z,7.80
2017-10-30T04:23:33.983Z,7.80
2017-10-30T04:26:01.456Z,7.60
2017-10-30T04:28:29.473Z,7.60
2017-10-30T04:30:57.332Z,7.50
2017-10-30T04:33:24.827Z,7.50
2017-10-30T04:35:52.657Z,7.50
2017-10-30T04:48:05.231Z,7.60
2017-10-30T04:50:32.717Z,7.20
2017-10-30T04:53:00.244Z,7.30
2017-10-30T04:55:27.767Z,7.30
2017-10-30T04:57:55.270Z,7.30
2017-10-30T05:00:22.807Z,7.40
2017-10-30T05:02:50.307Z,7.40
2017-10-30T05:05:18.651Z,7.50
2017-10-30T05:07:46.153Z,7.50
2017-10-30T05:10:13.649Z,7.60
2017-10-30T05:12:41.183Z,7.60
2017-10-30T05:15:08.672Z,7.70
2017-10-30T05:17:36.171Z,7.60
2017-10-30T05:20:03.768Z,7.60
2017-10-30T05:22:31.289Z,7.70
2017-10-30T05:24:58.807Z,7.70
2017-10-30T05:27:26.334Z,7.60
2017-10-30T05:29:54.623Z,7.50
2017-10-30T05:32:22.191Z,7.50
2017-10-30T05:34:49.677Z,7.60
2017-10-30T05:37:17.195Z,7.50
2017-10-30T05:39:44.739Z,7.60
2017-10-30T05:42:13.026Z,7.60
2017-10-30T05:44:40.564Z,7.60
2017-10-30T05:47:08.066Z,7.60
2017-10-30T05:49:35.549Z,7.70
2017-10-30T05:52:03.069Z,7.50
2017-10-30T05:54:30.578Z,7.60
2017-10-30T05:56:58.452Z,7.60
2017-10-30T05:59:26.164Z,7.50
2017-10-30T06:01:53.654Z,7.60
2017-10-30T06:04:21.189Z,7.60
2017-10-30T06:06:48.978Z,7.60
2017-10-30T06:09:16.555Z,7.60
2017-10-30T06:11:44.072Z,7.60
2017-10-30T06:14:11.641Z,7.60
2017-10-30T06:16:39.178Z,7.60
2017-10-30T06:19:06.738Z,7.70
2017-10-30T06:21:34.239Z,7.70
2017-10-30T06:24:01.754Z,7.70
2017-10-30T06:26:29.280Z,7.70
2017-10-30T06:28:56.775Z,7.70
2017-10-30T06:31:24.310Z,7.80
2017-10-30T06:33:52.180Z,7.80
2017-10-30T06:36:20.439Z,7.90
2017-10-30T06:38:48.754Z,7.90
2017-10-30T06:41:16.569Z,7.90
2017-10-30T06:43:45.598Z,7.90
2017-10-30T06:46:13.116Z,7.90
2017-10-30T06:48:40.603Z,7.90
2017-10-30T06:51:09.233Z,8.00
2017-10-30T06:53:36.738Z,8.00
2017-10-30T06:56:04.301Z,8.00
2017-10-30T06:58:31.819Z,8.00
2017-10-30T07:13:55.118Z,7.60
2017-10-30T07:16:23.010Z,7.60
2017-10-30T07:18:50.559Z,7.60
2017-10-30T07:21:18.061Z,7.70
2017-10-30T07:23:45.569Z,7.70
2017-10-30T07:26:13.096Z,7.80
2017-10-30T07:28:40.625Z,7.90
2017-10-30T07:31:08.125Z,7.80
2017-10-30T07:33:36.427Z,7.80
2017-10-30T07:36:03.938Z,7.80
2017-10-30T07:38:31.759Z,7.90
2017-10-30T07:41:00.048Z,7.80
2017-10-30T07:43:27.555Z,7.80
2017-10-30T07:45:55.885Z,7.80
2017-10-30T07:48:23.418Z,7.80
2017-10-30T07:50:50.916Z,7.70
2017-10-30T07:53:18.756Z,7.60
2017-10-30T07:55:46.321Z,7.50
2017-10-30T07:58:13.847Z,7.60
2017-10-30T08:00:41.449Z,7.70
2017-10-30T08:03:08.978Z,7.80
2017-10-30T08:05:36.512Z,7.90
2017-10-30T08:08:04.846Z,7.90
2017-10-30T08:10:32.396Z,7.90
2017-10-30T08:12:59.971Z,8.00
2017-10-30T08:15:27.563Z,8.00
2017-10-30T08:17:55.121Z,8.00
2017-10-30T08:20:22.713Z,8.10
2017-10-30T08:22:51.521Z,8.20
2017-10-30T08:25:19.086Z,8.10
2017-10-30T08:27:46.609Z,8.30
2017-10-30T08:30:14.479Z,8.30
2017-10-30T08:32:43.353Z,8.20
2017-10-30T08:35:10.943Z,8.20
2017-10-30T08:37:38.746Z,8.30
2017-10-30T08:40:07.140Z,8.20
2017-10-30T08:42:34.690Z,8.20
2017-10-30T08:45:02.208Z,8.20
2017-10-30T08:47:29.768Z,8.20
2017-10-30T08:49:57.349Z,8.30
2017-10-30T08:52:24.926Z,8.10
2017-10-30T08:54:52.520Z,8.10
2017-10-30T08:57:21.025Z,8.10
2017-10-30T08:59:48.609Z,8.10
2017-10-30T09:02:16.121Z,8.00
2017-10-30T09:04:43.898Z,8.00
2017-10-30T09:07:11.467Z,8.00
2017-10-30T09:09:38.991Z,8.00
2017-10-30T09:12:08.829Z,8.00
2017-10-30T09:14:37.237Z,8.10
2017-10-30T09:17:04.799Z,8.10
2017-10-30T09:19:32.339Z,8.20
2017-10-30T09:21:59.867Z,8.30
2017-10-30T09:26:55.042Z,8.40
2017-10-30T09:29:22.592Z,8.50
2017-10-30T09:31:50.156Z,8.50
2017-10-30T09:34:17.706Z,8.60
2017-10-30T09:36:45.410Z,8.80
2017-10-30T09:39:12.968Z,8.80
2017-10-30T09:41:40.484Z,8.90
2017-10-30T09:44:08.006Z,8.90
2017-10-30T09:46:35.540Z,9.00
2017-10-30T09:49:03.078Z,9.10
2017-10-30T09:51:30.673Z,9.10
2017-10-30T09:53:58.216Z,9.00
2017-10-30T09:56:25.740Z,8.90
2017-10-30T09:58:54.044Z,8.70
2017-10-30T10:01:21.582Z,8.60
2017-10-30T10:03:49.089Z,8.60
2017-10-30T10:06:16.694Z,8.70
2017-10-30T10:08:44.208Z,8.70
2017-10-30T10:11:12.528Z,8.80
2017-10-30T10:13:40.101Z,8.80
2017-10-30T10:16:07.661Z,8.90
2017-10-30T10:18:35.649Z,9.00
2017-10-30T10:21:03.200Z,9.20
2017-10-30T10:23:30.745Z,9.30
2017-10-30T10:25:58.350Z,9.30
2017-10-30T10:28:26.355Z,9.40
2017-10-30T10:30:54.699Z,9.60
2017-10-30T10:33:22.257Z,9.50
2017-10-30T10:35:49.841Z,9.60
2017-10-30T10:38:18.145Z,9.50
2017-10-30T10:40:45.717Z,9.50
2017-10-30T10:43:13.683Z,9.50
2017-10-30T10:45:41.364Z,9.50
2017-10-30T10:48:08.955Z,9.50
2017-10-30T10:50:36.497Z,9.40
2017-10-30T10:53:04.036Z,9.30
2017-10-30T10:55:31.621Z,9.00
2017-10-30T10:57:59.206Z,8.70
2017-10-30T11:00:26.752Z,8.50
2017-10-30T11:02:54.706Z,8.10
2017-10-30T11:05:22.550Z,8.00
2017-10-30T11:20:45.885Z,7.90
2017-10-30T11:23:13.379Z,7.90
2017-10-30T11:25:40.911Z,8.00
2017-10-30T11:28:08.469Z,8.20
2017-10-30T11:30:36.354Z,8.40
2017-10-30T11:33:04.200Z,8.50
2017-10-30T11:35:31.744Z,8.60
2017-10-30T11:37:59.254Z,8.80
2017-10-30T11:40:26.937Z,8.90
2017-10-30T11:42:55.252Z,9.20
2017-10-30T11:45:22.753Z,9.10
2017-10-30T11:47:50.272Z,9.30
2017-10-30T11:50:17.818Z,9.30
2017-10-30T11:52:45.335Z,9.40
2017-10-30T11:55:12.850Z,9.50
2017-10-30T11:57:40.419Z,9.60
2017-10-30T12:00:09.556Z,9.70
2017-10-30T12:02:37.075Z,9.70
2017-10-30T12:05:05.524Z,9.80
2017-10-30T12:07:33.087Z,9.70
2017-10-30T12:10:00.601Z,9.70
2017-10-30T12:12:28.163Z,9.60
2017-10-30T12:14:55.679Z,9.70
2017-10-30T12:17:23.220Z,9.70
2017-10-30T12:19:50.793Z,9.80
2017-10-30T12:22:18.333Z,9.90
2017-10-30T12:24:45.880Z,9.90
2017-10-30T12:27:13.471Z,9.80
2017-10-30T12:29:40.966Z,9.70
2017-10-30T12:32:08.546Z,9.70
2017-10-30T12:34:36.054Z,9.80
2017-10-30T12:37:03.637Z,9.80
2017-10-30T12:39:31.212Z,9.70
2017-10-30T12:41:58.761Z,9.80
2017-10-30T12:44:26.260Z,9.70
2017-10-30T12:46:54.580Z,9.70
2017-10-30T12:49:22.096Z,9.70
2017-10-30T12:51:49.621Z,9.70
2017-10-30T12:54:17.163Z,9.70
2017-10-30T12:56:44.705Z,9.70
2017-10-30T12:59:12.268Z,9.70
2017-10-30T13:01:39.801Z,9.70
2017-10-30T13:04:07.323Z,9.70
2017-10-30T13:06:34.894Z,9.80
2017-10-30T13:09:02.411Z,9.80
2017-10-30T13:11:29.938Z,9.80
2017-10-30T13:13:57.475Z,9.90
2017-10-30T13:16:24.984Z,9.90
2017-10-30T13:18:52.508Z,9.80
2017-10-30T13:21:21.140Z,9.70
2017-10-30T13:23:48.653Z,9.70
2017-10-30T13:26:16.222Z,9.60
2017-10-30T13:28:43.756Z,9.60
2017-10-30T13:31:11.327Z,9.60
2017-10-30T13:33:39.595Z,9.70
2017-10-30T13:36:07.854Z,9.70
2017-10-30T13:38:35.376Z,9.70
2017-10-30T13:41:02.950Z,9.60
2017-10-30T13:43:30.440Z,9.60
2017-10-30T13:45:57.923Z,9.60
2017-10-30T13:48:25.470Z,9.60
2017-10-30T13:50:53.275Z,9.60
2017-10-30T13:53:20.878Z,9.60
2017-10-30T13:55:48.428Z,9.60
2017-10-30T13:58:15.923Z,9.60
2017-10-30T14:00:43.471Z,9.50
2017-10-30T14:03:11.937Z,9.60
2017-10-30T14:05:39.457Z,9.70
2017-10-30T14:08:07.013Z,9.80
2017-10-30T14:10:34.535Z,9.70
2017-10-30T14:13:02.868Z,9.70
2017-10-30T14:15:31.148Z,9.80
2017-10-30T14:17:58.656Z,9.70
2017-10-30T14:20:26.186Z,9.70
2017-10-30T14:22:53.705Z,9.90
2017-10-30T14:25:21.558Z,9.90
2017-10-30T14:27:49.067Z,9.90
2017-10-30T14:30:18.084Z,10.10
2017-10-30T14:32:46.393Z,10.10
2017-10-30T14:35:14.005Z,10.10
2017-10-30T14:37:41.535Z,10.10
2017-10-30T14:40:09.475Z,10.10
2017-10-30T14:42:36.995Z,10.00
2017-10-30T14:45:04.695Z,9.90
2017-10-30T14:47:32.282Z,9.90
2017-10-30T14:49:59.861Z,10.00
2017-10-30T14:52:27.433Z,9.90
2017-10-30T14:54:54.984Z,9.80
2017-10-30T14:57:22.607Z,9.60
2017-10-30T14:59:50.167Z,9.80
2017-10-30T15:02:17.778Z,9.70
2017-10-30T15:04:46.149Z,9.60
2017-10-30T15:07:13.688Z,9.70
2017-10-30T15:09:41.251Z,9.70
2017-10-30T15:12:09.680Z,9.50
2017-10-30T15:14:38.028Z,9.20
2017-10-30T15:17:05.611Z,9.20
2017-10-30T15:19:33.140Z,9.20
2017-10-30T15:22:00.654Z,9.00
2017-10-30T15:24:28.315Z,8.90
2017-10-30T15:26:55.870Z,8.80
2017-10-30T15:29:24.016Z,8.70
2017-10-30T15:31:52.309Z,8.70
2017-10-30T15:34:20.605Z,8.70
2017-10-30T15:36:48.113Z,8.70
2017-10-30T15:39:15.624Z,8.70
2017-10-30T15:41:43.216Z,8.70
2017-10-30T15:44:10.739Z,8.70
2017-10-30T15:46:38.408Z,8.70
2017-10-30T15:49:05.960Z,8.70
2017-10-30T15:51:33.492Z,8.60
2017-10-30T15:54:01.905Z,8.80
2017-10-30T15:56:29.467Z,8.80
2017-10-30T15:58:57.125Z,8.80
2017-10-30T16:01:24.635Z,8.80
2017-10-30T16:03:52.153Z,8.80
2017-10-30T16:06:19.801Z,8.80
2017-10-30T16:08:47.298Z,8.90
2017-10-30T16:11:15.656Z,8.80
2017-10-30T16:13:43.160Z,8.80
2017-10-30T16:16:11.501Z,8.70
2017-10-30T16:18:39.064Z,8.70
2017-10-30T16:21:06.575Z,8.70
2017-10-30T16:23:34.103Z,8.60
2017-10-30T16:26:02.394Z,8.70
2017-10-30T16:28:29.884Z,8.70
2017-10-30T16:30:57.429Z,8.70
2017-10-30T16:33:24.956Z,8.70
2017-10-30T16:35:52.533Z,8.70
2017-10-30T16:38:20.831Z,8.70
2017-10-30T16:40:48.401Z,8.70
2017-10-30T16:43:17.558Z,8.80
2017-10-30T16:45:45.077Z,8.70
2017-10-30T16:48:12.814Z,8.70
2017-10-30T16:50:40.346Z,8.60
2017-10-30T16:53:08.760Z,8.70
2017-10-30T16:55:36.302Z,8.70
2017-10-30T16:58:03.858Z,8.70
2017-10-30T17:00:31.399Z,8.70
2017-10-30T17:02:59.686Z,8.80
2017-10-30T17:05:29.641Z,8.70
2017-10-30T17:07:57.856Z,8.70
2017-10-30T17:10:25.392Z,8.60
2017-10-30T17:12:52.929Z,8.50
2017-10-30T17:15:20.470Z,8.50
2017-10-30T17:17:48.064Z,8.60
2017-10-30T17:20:15.584Z,8.60
2017-10-30T17:22:43.110Z,8.60
2017-10-30T17:25:10.871Z,8.50
2017-10-30T17:27:38.579Z,8.60
2017-10-30T17:30:06.873Z,8.50
2017-10-30T17:32:34.398Z,8.50
2017-10-30T17:35:02.920Z,8.50
2017-10-30T17:37:30.587Z,8.40
2017-10-30T17:39:58.605Z,8.50
2017-10-30T17:42:26.400Z,8.50
2017-10-30T17:44:53.985Z,8.50
2017-10-30T17:47:21.555Z,8.60
2017-10-30T17:49:49.095Z,8.60
2017-10-30T17:52:16.796Z,8.50
2017-10-30T17:54:45.003Z,8.50
2017-10-30T17:57:12.683Z,8.40
2017-10-30T17:59:40.310Z,8.40
2017-10-30T18:02:08.610Z,8.30
2017-10-30T18:04:36.149Z,8.30
2017-10-30T18:07:03.689Z,8.30
2017-10-30T18:09:31.210Z,8.30
2017-10-30T18:11:58.740Z,8.30
2017-10-30T18:14:26.237Z,8.30
2017-10-30T18:16:53.792Z,8.40
2017-10-30T18:19:21.726Z,8.30
2017-10-30T18:21:55.012Z,8.30
2017-10-30T18:24:23.315Z,8.40
2017-10-30T18:26:50.880Z,8.30
2017-10-30T18:29:18.671Z,8.40
2017-10-30T18:31:47.143Z,8.40
2017-10-30T18:34:14.684Z,8.40
2017-10-30T18:36:42.252Z,8.40
2017-10-30T18:39:09.799Z,8.50
2017-10-30T18:41:37.336Z,8.60
2017-10-30T18:44:07.357Z,8.60
2017-10-30T18:46:35.920Z,8.60
2017-10-30T18:49:04.194Z,8.50
2017-10-30T18:51:32.480Z,8.40
2017-10-30T18:54:00.776Z,8.50
2017-10-30T18:56:28.983Z,8.50
2017-10-30T18:58:56.568Z,8.50
2017-10-30T19:01:24.823Z,8.50
2017-10-30T19:03:53.019Z,8.50
2017-10-30T19:06:20.578Z,8.50
2017-10-30T19:08:48.145Z,8.40
2017-10-30T19:11:15.649Z,8.50
2017-10-30T19:13:43.205Z,8.50
2017-10-30T19:16:10.732Z,8.40
2017-10-30T19:18:39.051Z,8.50
2017-10-30T19:21:06.667Z,8.50
2017-10-30T19:23:36.115Z,8.60
2017-10-30T19:26:04.042Z,8.50
2017-10-30T19:28:31.831Z,8.60
2017-10-30T19:30:59.413Z,8.50
2017-10-30T19:33:26.987Z,8.50
2017-10-30T19:35:54.527Z,8.40
2017-10-30T19:38:22.085Z,8.30
2017-10-30T19:40:49.672Z,8.40
2017-10-30T19:43:17.199Z,8.40
2017-10-30T19:45:44.928Z,8.30
2017-10-30T19:48:14.165Z,8.40
2017-10-30T19:50:41.695Z,8.40
2017-10-30T19:53:09.333Z,8.50
2017-10-30T19:55:37.742Z,8.40
2017-10-30T19:58:06.136Z,8.50
2017-10-30T20:00:33.692Z,8.40
2017-10-30T20:03:01.344Z,8.50
2017-10-30T20:05:34.671Z,8.40
2017-10-30T20:08:02.264Z,8.30
2017-10-30T20:10:35.405Z,8.40
2017-10-30T20:13:03.001Z,8.40
2017-10-30T20:15:30.580Z,8.40
2017-10-30T20:17:58.139Z,8.30
2017-10-30T20:20:25.718Z,8.30
2017-10-30T20:22:54.028Z,8.30
2017-10-30T20:25:21.544Z,8.30
2017-10-30T20:27:49.253Z,8.30
2017-10-30T20:30:17.536Z,8.40
2017-10-30T20:32:46.571Z,8.40
2017-10-30T20:35:14.910Z,8.40
2017-10-30T20:37:42.461Z,8.30
2017-10-30T20:40:10.036Z,8.30
2017-10-30T20:42:37.572Z,8.30
2017-10-30T20:45:05.165Z,8.30
2017-10-30T20:47:32.760Z,8.30
2017-10-30T20:50:01.097Z,8.30
2017-10-30T20:52:29.169Z,8.30
2017-10-30T20:54:56.734Z,8.30
2017-10-30T20:57:24.255Z,8.30
2017-10-30T20:59:51.946Z,8.40
2017-10-30T21:02:19.464Z,8.30
2017-10-30T21:04:47.024Z,8.30
2017-10-30T21:07:15.469Z,8.20
2017-10-30T21:09:43.294Z,8.20
2017-10-30T21:12:10.819Z,8.20
2017-10-30T21:14:39.155Z,8.20
2017-10-30T21:17:06.845Z,8.10
2017-10-30T21:19:35.679Z,8.20
2017-10-30T21:22:04.386Z,8.30
2017-10-30T21:24:32.115Z,8.30
2017-10-30T21:26:59.639Z,8.30
2017-10-30T21:29:27.366Z,8.20
2017-10-30T21:31:54.907Z,8.20
2017-10-30T21:34:22.713Z,8.20
2017-10-30T21:36:50.259Z,8.20
2017-10-30T21:39:18.345Z,8.20
2017-10-30T21:41:45.906Z,8.30
2017-10-30T21:44:13.430Z,8.20
2017-10-30T21:46:42.122Z,8.20
2017-10-30T21:49:09.662Z,8.10
2017-10-30T21:51:38.126Z,8.20
2017-10-30T21:54:06.534Z,8.30
2017-10-30T21:56:34.060Z,8.30
2017-10-30T21:59:02.506Z,8.30
2017-10-30T22:01:30.476Z,8.20
2017-10-30T22:03:58.069Z,8.30
2017-10-30T22:06:25.658Z,8.20
2017-10-30T22:08:53.215Z,8.10
2017-10-30T22:11:20.949Z,8.20
2017-10-30T22:13:49.236Z,8.20
2017-10-30T22:16:17.574Z,8.10
2017-10-30T22:18:45.899Z,8.10
2017-10-30T22:21:13.449Z,8.10
2017-10-30T22:23:41.749Z,8.10
2017-10-30T22:26:09.362Z,8.10
2017-10-30T22:28:36.871Z,8.10
2017-10-30T22:31:04.379Z,8.20
2017-10-30T22:33:31.958Z,8.10
2017-10-30T22:36:00.228Z,8.10
2017-10-30T22:38:28.542Z,8.10
2017-10-30T22:40:56.075Z,8.10
2017-10-30T22:43:23.640Z,7.90
2017-10-30T22:45:51.966Z,7.80
2017-10-30T22:48:19.458Z,7.80
2017-10-30T22:50:47.046Z,7.90
2017-10-30T22:53:14.561Z,8.00
2017-10-30T22:55:42.293Z,7.90
2017-10-30T22:58:09.804Z,7.80
2017-10-30T23:00:38.063Z,7.80
2017-10-30T23:03:05.621Z,7.80
2017-10-30T23:05:33.141Z,7.70
2017-10-30T23:08:00.685Z,7.60
2017-10-30T23:10:28.184Z,7.70
2017-10-30T23:12:55.762Z,7.60
2017-10-30T23:15:23.351Z,7.60
2017-10-30T23:17:50.872Z,7.60
2017-10-30T23:20:18.392Z,7.60
2017-10-30T23:22:45.951Z,7.60
2017-10-30T23:25:13.463Z,7.60
2017-10-30T23:27:41.829Z,7.60
2017-10-30T23:30:10.236Z,7.40
2017-10-30T23:32:38.498Z,7.50
2017-10-30T23:35:06.525Z,7.50
2017-10-30T23:37:34.682Z,7.60
2017-10-30T23:40:02.185Z,7.70
2017-10-30T23:42:29.706Z,7.80
2017-10-30T23:44:57.255Z,7.70
2017-10-30T23:47:24.840Z,7.70
2017-10-30T23:49:52.354Z,7.70
2017-10-30T23:52:20.630Z,7.60
2017-10-30T23:54:48.949Z,7.40
2017-10-30T23:57:16.453Z,7.30
2017-10-30T23:59:43.972Z,7.10
